Aviation Digital Data Service (ADDS)

Output produced by METARs form (1842 UTC 18 June 2019)
found at http://www.aviationweather.gov/metar/data/
 
KVJI 181835Z AUTO 34007KT 10SM BKN020 BKN028 OVC032 24/20 A3003 RMK AO2 LTG DSNT SW T02380204
KBCB 181835Z AUTO 31006KT 10SM SCT049 BKN060 OVC120 25/20 A3007 RMK AO2 LTG DSNT SE T02500204
KBCB 181747Z 1818/1918 23007KT P6SM VCTS BKN050CB 
     FM181900 23009KT 4SM TSRA OVC040CB 
     TEMPO 1819/1822 2SM +TSRA OVC030CB 
     FM182300 21005KT P6SM VCSH OVC030 
     FM190800 VRB03KT P6SM OVC010 
     FM191400 23005KT P6SM BKN040
       
KBKT 181835Z AUTO 23005KT 10SM CLR 30/23 A2995 RMK AO1 T02960226
K0V4 181835Z AUTO 26003KT 10SM SCT040 SCT048 SCT075 29/21 A2995 RMK AO1 T02920208
KCHO 181753Z 16005KT 10SM FEW041 SCT070 SCT110 29/21 A2995 RMK AO2 RAB35E49 SLP132 P0000 60000 T02940211 10311 20228 58007
KCHO 181743Z 1818/1918 23005KT 5SM -SHRA VCTS SCT020CB OVC040 
     FM190100 20004KT 4SM -SHRA VCTS SCT020CB OVC025 
     FM190900 VRB03KT 6SM BR SCT020 OVC050 
     FM191400 VRB03KT 6SM BR SCT020 BKN045 
     FM191600 20004KT P6SM SCT020 BKN060
       
KCXE 181835Z AUTO 00000KT 10SM BKN032 BKN042 OVC110 29/22 A2996 RMK AO1 T02930218
KW63 181835Z AUTO 00000KT 10SM SCT032 BKN049 OVC065 26/26 A2995 RMK AO1 P0004
KW81 181835Z AUTO 21003KT 10SM CLR 30/22 A2994 RMK AO1 T02950220
KCJR 181835Z AUTO 18004KT 10SM BKN110 30/20 A2993 RMK AO2 T03040201
KDAN 181753Z AUTO 24006KT 10SM SCT027 BKN034 29/23 A2998 RMK AO2 LTG DSNT E AND SE AND NW SLP140 T02890228 10294 20217 58012
KDAN 181747Z 1818/1918 23008KT P6SM VCTS BKN050CB 
     FM182200 23010KT 4SM TSRA OVC040CB 
     TEMPO 1823/1901 2SM +TSRA OVC030CB 
     FM190100 VRB04KT P6SM VCSH BKN040 
     FM190600 VRB03KT P6SM OVC020 
     FM191300 22006KT P6SM BKN040
       
KPSK 181835Z AUTO 00000KT 10SM SCT023 SCT030 OVC050 25/20 A3005 RMK AO2 LTG DSNT SE T02450196
KEMV 181835Z AUTO 24006KT SCT038 SCT044 BKN050 31/23 A2995 RMK AO2 LTG DSNT E T03090231
KFVX 181835Z AUTO 25004KT 10SM SCT037 SCT120 29/21 A2993 RMK AO2 LTG DSNT SW T02920213
KFKN 181835Z AUTO 19006KT 10SM VCTSRA SCT039 SCT047 BKN080 29/23 A2995 RMK AO2 LTG DSNT SE THRU W T02930232
KEZF 181835Z AUTO 23003KT 10SM BKN100 BKN120 30/22 A2991 RMK AO2 T02970224
KFRR 181835Z AUTO 27004KT 10SM CLR 27/20 A2993 RMK AO1
KHLX 181835Z AUTO 00000KT 7SM -RA SCT006 BKN050 OVC070 20/19 A3006 RMK AO2 LTG DSNT NE P0012 T02000194
KHSP 181835Z AUTO 28008KT 10SM SCT007 BKN055 OVC065 20/20 A3012 RMK AO2 P0001 T01970197
K0VG 181835Z AUTO 00000KT 9SM -DZ CLR 22/21 A3003 RMK AO2
KW31 181835Z AUTO 00000KT 10SM SCT030 29/23 A2995 RMK AO1 T02920229
KLVL 181835Z AUTO 18004KT 10SM SCT037 SCT100 30/22 A2995 RMK AO1 T02970218
KJYO 181835Z AUTO 29008KT 10SM SCT028 SCT034 BKN043 27/21 A2993 RMK AO2
KLKU 181835Z AUTO 15003KT 10SM BKN090 OVC110 28/20 A2998 RMK AO2 T02840203
KLUA 181835Z AUTO 00000KT 10SM SCT060 28/18 A2995 RMK AO2
KLYH 181754Z 00000KT 10SM SCT080 29/20 A2999 RMK AO2 SLP144 T02890200 10294 20217 58009
KLYH 181747Z 1818/1918 23008KT P6SM VCTS OVC050CB 
     FM182200 23010KT 4SM TSRA OVC040CB 
     TEMPO 1822/1901 2SM +TSRA OVC030CB 
     FM190100 VRB04KT P6SM VCSH BKN030 
     FM190600 VRB03KT P6SM OVC008 
     FM191300 19006KT P6SM OVC020
       
KHEF 181756Z 30008KT 10SM SCT042 29/22 A2993 RMK AO2 SLP143 6//// T02940217 10294 20222 58007 PNO $
KMKJ 181835Z AUTO 00000KT 10SM -RA SCT034 SCT050 OVC100 24/21 A3008 RMK AO2 LTG DSNT SW AND W T02360209
KMTV 181838Z AUTO 17006KT 10SM SCT027 BKN033 BKN046 29/23 A2999 RMK AO2 LTG DSNT N AND NE
KMFV 181835Z AUTO 24012G20KT 10SM CLR 30/21 A2993 RMK AO2 T03000209 PNO
KCPK 181835Z AUTO 33009KT 290V360 3SM +TSRA SCT020 BKN042 OVC100 29/23 A2996 RMK AO2 P0008 T02930233
KPVG 181838Z AUTO 24009KT 10SM VCTS SCT042 SCT050 32/23 A2994 RMK AO2 LTG DSNT ALQDS TSB32
KORF 181751Z 25010KT 10SM FEW042 FEW075 31/22 A2995 RMK AO2 LTG DSNT N AND NE SLP141 T03110217 10322 20250 58009
KORF 181739Z 1818/1918 25010KT P6SM SCT150 
     FM182000 22009KT P6SM SCT045 
     FM190300 20006KT P6SM BKN035 
     FM191600 17005KT P6SM SCT035 BKN100
       
KOMH 181835Z AUTO 17004KT 10SM SCT033 SCT060 BKN110 28/21 A2993 RMK AO2
KPTB 181835Z AUTO 22007KT 10SM SCT080 31/22 A2994 RMK AO2 LTG DSNT S T03100215
KW96 181835Z AUTO 24004KT 10SM SCT120 30/22 A2993 RMK AO1 T02990219
KJFZ 181835Z AUTO 33003KT 18/18 A3009 RMK AO2 LTG DSNT E AND SW P0002 T01820178 PWINO
KFCI 181756Z AUTO 23006KT 10SM SCT120 29/22 A2995 RMK AO2 SLP151 T02890222 10300 20233 58012
KOFP 181754Z AUTO 30005KT 10SM FEW110 31/21 A2995 RMK AO2 SLP140 T03060206 10306 20244 58010
KRIC 181754Z 26005KT 10SM FEW040 SCT110 BKN300 31/21 A2994 RMK AO2 SLP141 T03060211 10311 20244 58009
KRIC 181739Z 1818/1918 22010KT P6SM SCT100 
     FM182200 23008KT 5SM -SHRA OVC060 
     TEMPO 1822/1824 4SM TSRA BR OVC035CB 
     FM190000 23005KT P6SM OVC070 
     TEMPO 1900/1903 4SM SHRA BR OVC035 
     FM190300 18004KT 5SM -SHRA BR OVC025 
     FM190800 18003KT P6SM BKN025 
     FM191500 20004KT P6SM BKN035
       
KROA 181754Z VRB03KT 10SM FEW037 SCT070 29/19 A3002 RMK AO2 LTG DSNT N AND NE SLP150 T02890189 10289 20222 58007
KROA 181747Z 1818/1918 27008KT P6SM VCTS BKN050CB 
     FM182000 27010KT 4SM TSRA OVC040CB 
     TEMPO 1820/1823 2SM +TSRA OVC030CB 
     FM182300 VRB04KT P6SM VCSH BKN040 
     FM190700 VRB03KT P6SM OVC020 
     FM191400 22007KT P6SM BKN050
       
KW78 181835Z AUTO 10007KT 3/4SM BKN010 BKN023 OVC036 23/22 A2996 RMK AO1 P0034 T02340223
KAVC 181835Z AUTO 28006KT 5SM SCT016 BKN041 OVC060 26/25 A3001 RMK AO2 LTG DSNT W P0005 T02580250
KRMN 181835Z AUTO 22003KT 10SM BKN110 32/22 A2996 RMK AO2 T03200223
KSHD 181830Z AUTO 24007KT 10SM SCT032 SCT043 SCT050 28/18 A2999 RMK AO2 T02770181
KSFQ 181835Z AUTO 21008KT 10SM SCT037 SCT049 SCT060 32/23 A2995 RMK AO2 LTG DSNT W T03200230
KTGI 181838Z AUTO 19005KT 10SM SCT120 29/24 A2992 RMK AO1
KXSA 181835Z AUTO 25003KT 10SM CLR 30/23 A2994 RMK AO2 T03010226
KAKQ 181838Z AUTO 25005KT 10SM VCTS CLR 32/22 A2993 RMK AO2 LTG DSNT ALQDS T03170222
KHWY 181835Z AUTO 00000KT 10SM BKN120 30/19 A2992 RMK AO2 T03020193
KDCA 181752Z 26009KT 10SM FEW028 SCT045 BKN100 OVC130 29/20 A2992 RMK AO2 SLP132 BINOVC T02890200 10294 20233 58006
KDCA 181743Z 1818/1924 17010KT 5SM -SHRA VCTS SCT025CB OVC045 
     FM190300 20004KT 6SM -SHRA SCT020 OVC035 
     FM190900 20004KT 6SM -SHRA OVC020 
     FM191200 20004KT 5SM BR SCT020 OVC045 
     FM192200 19006KT 6SM -SHRA VCTS OVC030CB
       
KIAD 181752Z 28009KT 10SM SCT011 BKN035TCU BKN110 BKN220 29/19 A2993 RMK AO2 SLP132 TCU OHD T02940194 10294 20217 58004
KIAD 181743Z 1818/1924 28012G18KT 5SM -SHRA VCTS SCT025CB OVC040 
     FM190300 19004KT 6SM -SHRA SCT020 OVC035 
     FM190900 19004KT 5SM -SHRA OVC020 
     FM191400 21004KT 6SM BR SCT020 OVC040 
     FM191600 20004KT P6SM SCT025 OVC040 
     FM192100 20006KT 6SM -SHRA VCTS SCT025CB OVC030
       
KFYJ 181835Z AUTO 20005KT 10SM SCT110 30/23 A2994 RMK AO1 T02990231
KJGG 181835Z AUTO 24005G14KT 10SM CLR 33/23 A2994 RMK AO1
KOKV 181835Z AUTO 22005KT 10SM OVC120 25/18 A2995 RMK AO2
KLNP 181835Z AUTO 21004KT 10SM RA SCT042 SCT060 OVC090 19/19 A3009 RMK AO2 LTG DSNT SE P0004